Time;durP1;ratioP1;P1;durP2;ratioP2;P2;SDS_P1;SDS_P2;PMS_P1;PMS_P2;Temp;Humidity;BMP_temperature;BMP_pressure;BME280_temperature;BME280_humidity;BME280_pressure;Samples;Min_cycle;Max_cycle;Signal;HPM_P1;HPM_P2
2023/02/21 02:16:11;;;;;;;;;;;;;;;;;;6158992;23;19909;-77
2023/02/21 02:18:37;;;;;;;;;;;;;;;;;;6133899;23;20257;-77
2023/02/21 02:21:02;;;;;;;;;;;;;;;;;;6133734;23;19916;-77
2023/02/21 02:23:28;;;;;;;;;;;;;;;;;;6132948;23;20250;-77
2023/02/21 02:25:53;;;;;;;;;;;;;;;;;;6158389;23;19940;-77
2023/02/21 02:28:19;;;;;;;;;;;;;;;;;;6133861;23;19908;-76
2023/02/21 02:30:44;;;;;;;;;;;;;;;;;;6132412;23;19908;-78
2023/02/21 02:33:10;;;;;;;;;;;;;;;;;;6134453;23;20314;-77
2023/02/21 02:35:35;;;;;;;;;;;;;;;;;;6160336;23;20283;-77
2023/02/21 02:38:02;;;;;;;;;;;;;;;;;;6162287;23;19916;-77
2023/02/21 02:40:27;;;;;;;;;;;;;;;;;;6136457;23;19956;-79
2023/02/21 02:42:53;;;;;;;;;;;;;;;;;;6136833;23;20254;-78
2023/02/21 02:45:18;;;;;;;;;;;;;;;;;;6161028;23;19959;-78
2023/02/21 02:47:44;;;;;;;;;;;;;;;;;;6110480;23;20227;-79
2023/02/21 02:50:09;;;;;;;;;;;;;;;;;;6111336;23;19908;-76
2023/02/21 02:52:35;;;;;;;;;;;;;;;;;;6135492;23;19909;-77
2023/02/21 02:55:00;;;;;;;;;;;;;;;;;;6133548;23;20228;-77
2023/02/21 02:57:26;;;;;;;;;;;;;;;;;;6132587;23;20258;-76
2023/02/21 02:59:52;;;;;;;;;;;;;;;;;;6132869;23;19919;-77
2023/02/21 03:02:17;;;;;;;;;;;;;;;;;;6133826;23;19912;-76
2023/02/21 03:04:42;;;;;;;;;;;;;;;;;;6160373;23;20346;-78
2023/02/21 03:07:08;;;;;;;;;;;;;;;;;;6134584;23;19908;-77
2023/02/21 03:09:34;;;;;;;;;;;;;;;;;;6110704;23;19908;-77
2023/02/21 03:12:00;;;;;;;;;;;;;;;;;;6135394;23;19904;-78
2023/02/21 03:14:25;;;;;;;;;;;;;;;;;;6160978;23;19916;-76
2023/02/21 03:16:50;;;;;;;;;;;;;;;;;;6134386;23;19909;-76
2023/02/21 03:19:16;;;;;;;;;;;;;;;;;;6133699;23;19913;-77
2023/02/21 03:21:42;;;;;;;;;;;;;;;;;;6134426;23;19965;-77
2023/02/21 03:24:07;;;;;;;;;;;;;;;;;;6133853;23;19915;-78
2023/02/21 03:26:33;;;;;;;;;;;;;;;;;;6156852;23;19909;-77
2023/02/21 03:29:09;;;;;;;;;;;;;;;;;;6107344;23;19909;-77
2023/02/21 03:31:34;;;;;;;;;;;;;;;;;;6157682;23;20361;-77
2023/02/21 03:34:00;;;;;;;;;;;;;;;;;;6155846;23;19912;-77
2023/02/21 03:36:26;;;;;;;;;;;;;;;;;;6130368;23;20365;-75
2023/02/21 03:38:52;;;;;;;;;;;;;;;;;;6131606;23;19912;-76
2023/02/21 03:41:18;;;;;;;;;;;;;;;;;;6107373;23;19915;-76
2023/02/21 03:43:43;;;;;;;;;;;;;;;;;;6131697;23;19909;-76
2023/02/21 03:46:09;;;;;;;;;;;;;;;;;;6106799;23;19904;-77
2023/02/21 03:48:35;;;;;;;;;;;;;;;;;;6131912;23;20003;-76
2023/02/21 03:51:10;;;;;;;;;;;;;;;;;;6131915;23;19909;-76
2023/02/21 03:53:35;;;;;;;;;;;;;;;;;;6131824;23;19916;-78
2023/02/21 03:56:02;;;;;;;;;;;;;;;;;;6106846;23;19909;-76
2023/02/21 03:58:36;;;;;;;;;;;;;;;;;;6131472;23;19909;-77
2023/02/21 04:01:02;;;;;;;;;;;;;;;;;;6131673;23;19909;-77
2023/02/21 04:03:29;;;;;;;;;;;;;;;;;;6131066;23;19913;-77
2023/02/21 04:06:02;;;;;;;;;;;;;;;;;;6130986;23;19920;-76
2023/02/21 04:08:29;;;;;;;;;;;;;;;;;;6131563;23;19908;-77
2023/02/21 04:10:54;;;;;;;;;;;;;;;;;;6130087;23;19932;-76
2023/02/21 04:13:23;;;;;;;;;;;;;;;;;;6106698;23;19905;-77
2023/02/21 04:15:49;;;;;;;;;;;;;;;;;;6130590;23;19975;-76
2023/02/21 04:18:15;;;;;;;;;;;;;;;;;;6106347;23;20037;-79
2023/02/21 04:20:41;;;;;;;;;;;;;;;;;;6130710;23;19967;-75
2023/02/21 04:23:09;;;;;;;;;;;;;;;;;;6106611;23;19909;-77
2023/02/21 04:25:35;;;;;;;;;;;;;;;;;;6130841;23;19909;-76
2023/02/21 04:28:06;;;;;;;;;;;;;;;;;;6130477;23;19916;-75
2023/02/21 04:30:32;;;;;;;;;;;;;;;;;;6131021;23;19909;-76
2023/02/21 04:32:57;;;;;;;;;;;;;;;;;;6106632;23;19912;-78
2023/02/21 04:35:23;;;;;;;;;;;;;;;;;;6130690;23;19909;-77
2023/02/21 04:37:49;;;;;;;;;;;;;;;;;;6106327;23;19939;-77
2023/02/21 04:40:14;;;;;;;;;;;;;;;;;;6133744;23;19912;-77
2023/02/21 04:42:40;;;;;;;;;;;;;;;;;;6162832;23;19919;-77
2023/02/21 04:45:06;;;;;;;;;;;;;;;;;;6137705;23;19912;-76
2023/02/21 04:47:31;;;;;;;;;;;;;;;;;;6164917;23;19955;-75
2023/02/21 04:49:57;;;;;;;;;;;;;;;;;;6139204;23;19909;-77
2023/02/21 04:52:23;;;;;;;;;;;;;;;;;;6139693;23;19909;-76
2023/02/21 04:54:48;;;;;;;;;;;;;;;;;;6139024;23;19909;-76
2023/02/21 04:57:18;;;;;;;;;;;;;;;;;;6131803;23;22621;-76
2023/02/21 04:59:44;;;;;;;;;;;;;;;;;;6133085;23;19935;-76
2023/02/21 05:02:09;;;;;;;;;;;;;;;;;;6133509;23;19947;-77
2023/02/21 05:04:35;;;;;;;;;;;;;;;;;;6108721;23;19905;-75
2023/02/21 05:07:01;;;;;;;;;;;;;;;;;;6157861;23;19912;-78
2023/02/21 05:09:26;;;;;;;;;;;;;;;;;;6110302;23;19915;-77
2023/02/21 05:11:52;;;;;;;;;;;;;;;;;;6110280;23;19928;-77
2023/02/21 05:14:17;;;;;;;;;;;;;;;;;;6135842;23;19916;-78
2023/02/21 05:16:43;;;;;;;;;;;;;;;;;;6134421;23;19956;-76
2023/02/21 05:19:09;;;;;;;;;;;;;;;;;;6110744;23;19912;-75
2023/02/21 05:21:37;;;;;;;;;;;;;;;;;;6134192;23;19908;-76
2023/02/21 05:24:03;;;;;;;;;;;;;;;;;;6135119;23;19905;-76
2023/02/21 05:26:30;;;;;;;;;;;;;;;;;;6108487;23;19908;-76
2023/02/21 05:28:56;;;;;;;;;;;;;;;;;;6133360;23;19908;-76
2023/02/21 05:31:21;;;;;;;;;;;;;;;;;;6133847;23;19919;-77
2023/02/21 05:33:47;;;;;;;;;;;;;;;;;;6133445;23;19915;-76
2023/02/21 05:36:12;;;;;;;;;;;;;;;;;;6162543;23;19909;-77
2023/02/21 05:38:45;;;;;;;;;;;;;;;;;;6122397;23;19928;-74
2023/02/21 05:41:10;;;;;;;;;;;;;;;;;;6129165;23;19909;-75
2023/02/21 05:43:35;;;;;;;;;;;;;;;;;;6155207;23;19908;-74
2023/02/21 05:46:01;;;;;;;;;;;;;;;;;;6153549;23;19909;-75
2023/02/21 05:48:26;;;;;;;;;;;;;;;;;;6132377;23;19943;-75
2023/02/21 05:50:51;;;;;;;;;;;;;;;;;;6100066;23;20074;-75
2023/02/21 05:53:17;;;;;;;;;;;;;;;;;;6100018;23;20391;-75
2023/02/21 05:55:42;;;;;;;;;;;;;;;;;;6125305;23;19913;-74
2023/02/21 05:58:07;;;;;;;;;;;;;;;;;;6125925;23;19913;-74
2023/02/21 06:00:33;;;;;;;;;;;;;;;;;;6124162;23;19945;-75
2023/02/21 06:02:58;;;;;;;;;;;;;;;;;;6126010;23;20386;-74
2023/02/21 06:05:24;;;;;;;;;;;;;;;;;;6098450;23;19979;-75
2023/02/21 06:07:49;;;;;;;;;;;;;;;;;;6099640;23;19909;-75
2023/02/21 06:10:15;;;;;;;;;;;;;;;;;;6124710;23;19916;-75
2023/02/21 06:12:40;;;;;;;;;;;;;;;;;;6076918;23;20258;-75
2023/02/21 06:15:06;;;;;;;;;;;;;;;;;;6125841;23;19916;-75
2023/02/21 06:17:31;;;;;;;;;;;;;;;;;;6100344;23;19909;-75
2023/02/21 06:19:57;;;;;;;;;;;;;;;;;;6100427;23;19913;-75
2023/02/21 06:22:22;;;;;;;;;;;;;;;;;;6125308;23;19933;-75
2023/02/21 06:24:47;;;;;;;;;;;;;;;;;;6076283;23;20358;-75
2023/02/21 06:27:14;;;;;;;;;;;;;;;;;;6127870;23;19909;-75
2023/02/21 06:29:39;;;;;;;;;;;;;;;;;;6124735;23;20028;-75
2023/02/21 06:32:04;;;;;;;;;;;;;;;;;;6124515;23;19933;-75
2023/02/21 06:34:30;;;;;;;;;;;;;;;;;;6126222;23;19909;-75
2023/02/21 06:36:55;;;;;;;;;;;;;;;;;;6100308;23;20344;-75
2023/02/21 06:39:21;;;;;;;;;;;;;;;;;;6126666;23;19960;-75
2023/02/21 06:41:46;;;;;;;;;;;;;;;;;;6099044;23;19913;-75
2023/02/21 06:44:12;;;;;;;;;;;;;;;;;;6126154;23;20188;-75
2023/02/21 06:46:37;;;;;;;;;;;;;;;;;;6126040;23;20008;-75
2023/02/21 06:49:03;;;;;;;;;;;;;;;;;;6100705;23;19909;-75
2023/02/21 06:51:28;;;;;;;;;;;;;;;;;;6100160;23;19984;-75
2023/02/21 06:53:53;;;;;;;;;;;;;;;;;;6125551;23;19913;-75
2023/02/21 06:56:19;;;;;;;;;;;;;;;;;;6125205;23;19908;-75
2023/02/21 06:58:44;;;;;;;;;;;;;;;;;;6124614;23;20356;-75
2023/02/21 07:01:10;;;;;;;;;;;;;;;;;;6125253;23;20255;-75
2023/02/21 07:03:35;;;;;;;;;;;;;;;;;;6125811;23;19929;-75
2023/02/21 07:06:01;;;;;;;;;;;;;;;;;;6124889;23;20239;-74
2023/02/21 07:08:26;;;;;;;;;;;;;;;;;;6125448;23;19909;-75
2023/02/21 07:10:51;;;;;;;;;;;;;;;;;;6099274;23;19916;-75
2023/02/21 07:13:17;;;;;;;;;;;;;;;;;;6125686;23;19948;-75
2023/02/21 07:15:42;;;;;;;;;;;;;;;;;;6098561;23;19909;-75
2023/02/21 07:18:08;;;;;;;;;;;;;;;;;;6125550;23;19909;-75
2023/02/21 07:20:34;;;;;;;;;;;;;;;;;;6099815;23;20332;-73
2023/02/21 07:22:59;;;;;;;;;;;;;;;;;;6127189;23;19909;-75
2023/02/21 07:25:24;;;;;;;;;;;;;;;;;;6127353;23;19916;-75
2023/02/21 07:27:51;;;;;;;;;;;;;;;;;;6101434;23;20335;-74
2023/02/21 07:30:17;;;;;;;;;;;;;;;;;;6127008;23;19983;-76
2023/02/21 07:32:42;;;;;;;;;;;;;;;;;;6100706;23;20406;-76
2023/02/21 07:35:07;;;;;;;;;;;;;;;;;;6100660;23;19945;-75
2023/02/21 07:37:33;;;;;;;;;;;;;;;;;;6101376;23;19948;-75
2023/02/21 07:39:58;;;;;;;;;;;;;;;;;;6127058;23;19960;-75
2023/02/21 07:42:23;;;;;;;;;;;;;;;;;;6100813;23;19912;-75
2023/02/21 07:44:49;;;;;;;;;;;;;;;;;;6100965;23;19948;-75
2023/02/21 07:47:14;;;;;;;;;;;;;;;;;;6127336;23;19975;-75
2023/02/21 07:49:40;;;;;;;;;;;;;;;;;;6126459;23;19916;-75
2023/02/21 07:52:05;;;;;;;;;;;;;;;;;;6101224;23;20369;-75
2023/02/21 07:54:31;;;;;;;;;;;;;;;;;;6101182;23;20302;-75
2023/02/21 07:56:56;;;;;;;;;;;;;;;;;;6125188;23;19909;-76
2023/02/21 07:59:22;;;;;;;;;;;;;;;;;;6126968;23;19913;-75
2023/02/21 08:01:47;;;;;;;;;;;;;;;;;;6127466;23;19989;-75
2023/02/21 08:04:13;;;;;;;;;;;;;;;;;;6127043;23;19983;-75
2023/02/21 08:06:39;;;;;;;;;;;;;;;;;;6126030;23;19913;-74
2023/02/21 08:09:05;;;;;;;;;;;;;;;;;;6126586;23;19913;-76
2023/02/21 08:11:31;;;;;;;;;;;;;;;;;;6127205;23;19909;-74
2023/02/21 08:13:56;;;;;;;;;;;;;;;;;;6101345;23;20220;-75
2023/02/21 08:16:22;;;;;;;;;;;;;;;;;;6101889;23;19952;-75
2023/02/21 08:18:49;;;;;;;;;;;;;;;;;;6080870;23;19935;-76
2023/02/21 08:21:14;;;;;;;;;;;;;;;;;;6104074;23;19913;-74
2023/02/21 08:23:40;;;;;;;;;;;;;;;;;;6106878;23;19909;-75
2023/02/21 08:26:05;;;;;;;;;;;;;;;;;;6105867;23;20327;-75
2023/02/21 08:28:31;;;;;;;;;;;;;;;;;;6106376;23;19909;-75
2023/02/21 08:30:56;;;;;;;;;;;;;;;;;;6104968;23;19909;-75
2023/02/21 08:33:22;;;;;;;;;;;;;;;;;;6127609;23;19916;-76
2023/02/21 08:35:47;;;;;;;;;;;;;;;;;;6128471;23;19909;-76
2023/02/21 08:38:12;;;;;;;;;;;;;;;;;;6102726;23;20354;-75
2023/02/21 08:40:38;;;;;;;;;;;;;;;;;;6127656;23;19919;-76
2023/02/21 08:43:04;;;;;;;;;;;;;;;;;;6101538;23;19916;-75
2023/02/21 08:45:30;;;;;;;;;;;;;;;;;;6126278;23;19908;-76
2023/02/21 08:47:55;;;;;;;;;;;;;;;;;;6125128;23;20389;-75
2023/02/21 08:50:20;;;;;;;;;;;;;;;;;;6101076;23;19915;-76
2023/02/21 08:52:46;;;;;;;;;;;;;;;;;;6127647;23;19959;-76
2023/02/21 08:55:11;;;;;;;;;;;;;;;;;;6128614;23;19945;-75
2023/02/21 08:57:36;;;;;;;;;;;;;;;;;;6125823;23;19909;-76
2023/02/21 09:00:04;;;;;;;;;;;;;;;;;;6126879;23;19913;-74
2023/02/21 09:02:31;;;;;;;;;;;;;;;;;;6126911;23;20315;-75
2023/02/21 09:04:57;;;;;;;;;;;;;;;;;;6100200;23;19909;-77
2023/02/21 09:07:22;;;;;;;;;;;;;;;;;;6101384;23;19931;-78
2023/02/21 09:09:47;;;;;;;;;;;;;;;;;;6126446;23;19960;-76
2023/02/21 09:12:13;;;;;;;;;;;;;;;;;;6126118;23;19916;-75
2023/02/21 09:14:38;;;;;;;;;;;;;;;;;;6100754;23;20318;-78
2023/02/21 09:17:03;;;;;;;;;;;;;;;;;;6100683;23;19913;-75
2023/02/21 09:19:29;;;;;;;;;;;;;;;;;;6125037;23;19956;-77
2023/02/21 09:21:57;;;;;;;;;;;;;;;;;;6126779;23;20363;-76
2023/02/21 09:24:24;;;;;;;;;;;;;;;;;;6102077;23;19916;-77
2023/02/21 09:26:49;;;;;;;;;;;;;;;;;;6127845;23;19909;-77
2023/02/21 09:29:15;;;;;;;;;;;;;;;;;;6102421;23;20239;-77
2023/02/21 09:31:40;;;;;;;;;;;;;;;;;;6127550;23;19915;-78
2023/02/21 09:34:06;;;;;;;;;;;;;;;;;;6102076;23;19908;-78
2023/02/21 09:36:31;;;;;;;;;;;;;;;;;;6127804;23;19909;-77
2023/02/21 09:38:56;;;;;;;;;;;;;;;;;;6128631;23;19919;-77
2023/02/21 09:41:22;;;;;;;;;;;;;;;;;;6101256;23;19909;-78
2023/02/21 09:43:47;;;;;;;;;;;;;;;;;;6101746;23;19987;-78
2023/02/21 09:46:13;;;;;;;;;;;;;;;;;;6127017;23;19909;-78
2023/02/21 09:48:38;;;;;;;;;;;;;;;;;;6127703;23;19909;-78
2023/02/21 09:51:03;;;;;;;;;;;;;;;;;;6104829;23;19936;-79
2023/02/21 09:53:29;;;;;;;;;;;;;;;;;;6082396;23;19917;-78
2023/02/21 09:55:54;;;;;;;;;;;;;;;;;;6130099;23;19912;-79
2023/02/21 09:58:20;;;;;;;;;;;;;;;;;;6132945;23;19947;-78
2023/02/21 10:00:45;;;;;;;;;;;;;;;;;;6133022;23;19920;-79
2023/02/21 10:03:10;;;;;;;;;;;;;;;;;;6131412;23;20323;-78
2023/02/21 10:05:37;;;;;;;;;;;;;;;;;;6129331;23;19987;-77
2023/02/21 10:08:03;;;;;;;;;;;;;;;;;;6129222;23;19905;-78
2023/02/21 10:10:28;;;;;;;;;;;;;;;;;;6103881;23;19916;-78
2023/02/21 10:12:53;;;;;;;;;;;;;;;;;;6131061;23;19964;-77
2023/02/21 10:15:19;;;;;;;;;;;;;;;;;;6102928;23;19913;-77
2023/02/21 10:17:44;;;;;;;;;;;;;;;;;;6130040;23;19920;-78
2023/02/21 10:20:10;;;;;;;;;;;;;;;;;;6129589;23;19992;-77
2023/02/21 10:22:35;;;;;;;;;;;;;;;;;;6128299;23;20251;-78
2023/02/21 10:25:01;;;;;;;;;;;;;;;;;;6128829;23;19964;-77
2023/02/21 10:27:26;;;;;;;;;;;;;;;;;;6129567;23;19916;-78
2023/02/21 10:29:54;;;;;;;;;;;;;;;;;;6129422;23;20295;-77
2023/02/21 10:32:19;;;;;;;;;;;;;;;;;;6129118;23;19909;-77
2023/02/21 10:34:44;;;;;;;;;;;;;;;;;;6127210;23;19935;-79
2023/02/21 10:37:10;;;;;;;;;;;;;;;;;;6129008;23;19916;-78
2023/02/21 10:39:35;;;;;;;;;;;;;;;;;;6129506;23;19916;-77
2023/02/21 10:42:00;;;;;;;;;;;;;;;;;;6129156;23;19905;-77
2023/02/21 10:44:26;;;;;;;;;;;;;;;;;;6130004;23;19916;-78
2023/02/21 10:46:51;;;;;;;;;;;;;;;;;;6130014;23;19909;-77
2023/02/21 10:49:17;;;;;;;;;;;;;;;;;;6130728;23;19941;-78
2023/02/21 10:51:51;;;;;;;;;;;;;;;;;;6128397;23;19936;-79
2023/02/21 10:54:32;;;;;;;;;;;;;;;;;;6130918;23;19916;-78
2023/02/21 10:56:58;;;;;;;;;;;;;;;;;;6130197;23;19909;-78
2023/02/21 10:59:23;;;;;;;;;;;;;;;;;;6105039;23;19913;-79
2023/02/21 11:01:49;;;;;;;;;;;;;;;;;;6127946;23;19941;-77
2023/02/21 11:04:15;;;;;;;;;;;;;;;;;;6103048;23;20359;-79
2023/02/21 11:06:40;;;;;;;;;;;;;;;;;;6126693;23;19988;-79
2023/02/21 11:09:06;;;;;;;;;;;;;;;;;;6077353;23;19916;-78
2023/02/21 11:11:31;;;;;;;;;;;;;;;;;;6127877;23;19916;-78
2023/02/21 11:13:57;;;;;;;;;;;;;;;;;;6128101;23;19909;-78
2023/02/21 11:16:23;;;;;;;;;;;;;;;;;;6126291;23;19928;-78
2023/02/21 11:18:48;;;;;;;;;;;;;;;;;;6126508;23;19916;-78
2023/02/21 11:21:14;;;;;;;;;;;;;;;;;;6126988;23;19928;-78
2023/02/21 11:23:39;;;;;;;;;;;;;;;;;;6101180;23;20327;-78
2023/02/21 11:26:06;;;;;;;;;;;;;;;;;;6100907;23;19913;-78
2023/02/21 11:28:31;;;;;;;;;;;;;;;;;;6125585;23;19916;-78
2023/02/21 11:30:57;;;;;;;;;;;;;;;;;;6127220;23;19909;-78
2023/02/21 11:33:22;;;;;;;;;;;;;;;;;;6101244;23;19956;-78
2023/02/21 11:35:47;;;;;;;;;;;;;;;;;;6126715;23;19909;-78
2023/02/21 11:38:13;;;;;;;;;;;;;;;;;;6145678;23;19924;-85
2023/02/21 11:40:39;;;;;;;;;;;;;;;;;;6168694;23;20003;-84
2023/02/21 11:43:04;;;;;;;;;;;;;;;;;;6165995;23;19908;-81
2023/02/21 11:45:30;;;;;;;;;;;;;;;;;;6167664;23;19909;-83
2023/02/21 11:47:55;;;;;;;;;;;;;;;;;;6193232;23;19916;-81
2023/02/21 11:50:21;;;;;;;;;;;;;;;;;;6195701;23;20409;-84
2023/02/21 11:52:46;;;;;;;;;;;;;;;;;;6170501;23;19916;-85
2023/02/21 11:55:12;;;;;;;;;;;;;;;;;;6197207;23;20250;-86
2023/02/21 11:57:38;;;;;;;;;;;;;;;;;;6200595;23;19912;-85
2023/02/21 12:00:06;;;;;;;;;;;;;;;;;;6147756;23;19917;-85
2023/02/21 12:02:40;;;;;;;;;;;;;;;;;;6171944;23;19908;-86
2023/02/21 12:05:06;;;;;;;;;;;;;;;;;;6171929;23;20239;-85
2023/02/21 12:07:34;;;;;;;;;;;;;;;;;;6194212;23;19905;-85
2023/02/21 12:10:00;;;;;;;;;;;;;;;;;;6170318;23;19936;-84
2023/02/21 12:12:25;;;;;;;;;;;;;;;;;;6170742;23;19909;-84
2023/02/21 12:14:51;;;;;;;;;;;;;;;;;;6195903;23;19939;-86
2023/02/21 12:17:16;;;;;;;;;;;;;;;;;;6146025;23;19908;-82
2023/02/21 12:19:42;;;;;;;;;;;;;;;;;;6170479;23;20309;-84
2023/02/21 12:22:07;;;;;;;;;;;;;;;;;;6172076;23;19924;-82
2023/02/21 12:24:33;;;;;;;;;;;;;;;;;;6170573;23;19909;-86
2023/02/21 12:26:59;;;;;;;;;;;;;;;;;;6186959;23;19908;-85
2023/02/21 12:29:24;;;;;;;;;;;;;;;;;;6164128;23;19916;-84
2023/02/21 12:31:50;;;;;;;;;;;;;;;;;;6164007;23;19919;-83
2023/02/21 12:34:15;;;;;;;;;;;;;;;;;;6166949;23;19909;-82
2023/02/21 12:36:43;;;;;;;;;;;;;;;;;;6185507;23;20007;-82
2023/02/21 12:39:10;;;;;;;;;;;;;;;;;;6185201;23;20303;-79
2023/02/21 12:41:36;;;;;;;;;;;;;;;;;;6161360;23;19994;-84
2023/02/21 12:44:01;;;;;;;;;;;;;;;;;;6160869;23;20000;-83
2023/02/21 12:46:27;;;;;;;;;;;;;;;;;;6185557;23;19909;-83
2023/02/21 12:48:52;;;;;;;;;;;;;;;;;;6161473;23;20369;-86
2023/02/21 12:51:18;;;;;;;;;;;;;;;;;;6160084;23;20242;-84
2023/02/21 12:53:44;;;;;;;;;;;;;;;;;;6159303;23;19963;-84
2023/02/21 12:56:10;;;;;;;;;;;;;;;;;;6157338;23;20319;-84
2023/02/21 12:58:35;;;;;;;;;;;;;;;;;;6158243;23;19975;-85
2023/02/21 13:01:01;;;;;;;;;;;;;;;;;;6159811;23;20265;-83
2023/02/21 13:03:28;;;;;;;;;;;;;;;;;;6185814;23;19915;-83
2023/02/21 13:05:54;;;;;;;;;;;;;;;;;;6163225;23;19938;-84
2023/02/21 13:08:20;;;;;;;;;;;;;;;;;;6187352;23;20300;-84
2023/02/21 13:10:45;;;;;;;;;;;;;;;;;;6164683;23;19935;-83
2023/02/21 13:13:14;;;;;;;;;;;;;;;;;;6162649;23;19909;-82
2023/02/21 13:15:39;;;;;;;;;;;;;;;;;;6185784;23;19919;-83
2023/02/21 13:18:05;;;;;;;;;;;;;;;;;;6160794;23;19909;-83
2023/02/21 13:20:30;;;;;;;;;;;;;;;;;;6136777;23;19912;-81
2023/02/21 13:25:59;;;;;;;;;;;;;;;;;;6163391;23;19984;-84
2023/02/21 13:28:25;;;;;;;;;;;;;;;;;;6186248;23;19908;-82
2023/02/21 13:30:51;;;;;;;;;;;;;;;;;;6184288;23;19948;-83
2023/02/21 13:33:16;;;;;;;;;;;;;;;;;;6162288;23;19908;-79
2023/02/21 13:35:45;;;;;;;;;;;;;;;;;;6158578;23;19909;-82
2023/02/21 13:38:11;;;;;;;;;;;;;;;;;;6159338;23;19912;-83
2023/02/21 13:40:37;;;;;;;;;;;;;;;;;;6133993;23;20414;-84
2023/02/21 13:43:02;;;;;;;;;;;;;;;;;;6157114;23;20564;-83
2023/02/21 13:45:28;;;;;;;;;;;;;;;;;;6133512;23;19936;-82
2023/02/21 13:47:58;;;;;;;;;;;;;;;;;;6182577;23;19939;-84
2023/02/21 13:50:24;;;;;;;;;;;;;;;;;;6155692;23;19914;-83
2023/02/21 13:52:50;;;;;;;;;;;;;;;;;;6156895;23;19979;-84
2023/02/21 13:55:25;;;;;;;;;;;;;;;;;;6131350;23;19909;-79
2023/02/21 13:57:56;;;;;;;;;;;;;;;;;;6158238;23;19909;-85
2023/02/21 14:00:22;;;;;;;;;;;;;;;;;;6160335;23;19919;-85
2023/02/21 14:02:48;;;;;;;;;;;;;;;;;;6133257;23;19940;-84
2023/02/21 14:05:13;;;;;;;;;;;;;;;;;;6130687;23;19913;-78
2023/02/21 14:07:39;;;;;;;;;;;;;;;;;;6159339;23;19920;-85
2023/02/21 14:10:04;;;;;;;;;;;;;;;;;;6135304;23;19909;-88
2023/02/21 14:12:30;;;;;;;;;;;;;;;;;;6162149;23;19909;-86
2023/02/21 14:14:55;;;;;;;;;;;;;;;;;;6162727;23;20346;-83
2023/02/21 14:17:21;;;;;;;;;;;;;;;;;;6139774;23;19940;-84
2023/02/21 14:19:46;;;;;;;;;;;;;;;;;;6133937;23;20346;-79
2023/02/21 14:22:12;;;;;;;;;;;;;;;;;;6159322;23;19931;-82
2023/02/21 14:24:37;;;;;;;;;;;;;;;;;;6133428;23;19915;-80
2023/02/21 14:27:04;;;;;;;;;;;;;;;;;;6135025;23;19908;-84
2023/02/21 14:29:30;;;;;;;;;;;;;;;;;;6164917;23;19915;-87
2023/02/21 14:31:57;;;;;;;;;;;;;;;;;;6170153;23;19916;-86
2023/02/21 14:34:23;;;;;;;;;;;;;;;;;;6170274;23;19908;-86
2023/02/21 14:36:48;;;;;;;;;;;;;;;;;;6198954;23;19912;-86
2023/02/21 14:39:14;;;;;;;;;;;;;;;;;;6172052;23;19917;-87
2023/02/21 14:41:39;;;;;;;;;;;;;;;;;;6150552;23;19988;-87
2023/02/21 14:44:05;;;;;;;;;;;;;;;;;;6169643;23;20466;-86
2023/02/21 14:46:30;;;;;;;;;;;;;;;;;;6160229;23;20382;-84
2023/02/21 14:48:56;;;;;;;;;;;;;;;;;;6158239;23;19912;-86
2023/02/21 14:51:22;;;;;;;;;;;;;;;;;;6133655;23;19915;-84
2023/02/21 14:53:47;;;;;;;;;;;;;;;;;;6157231;23;20254;-82
2023/02/21 14:56:13;;;;;;;;;;;;;;;;;;6155993;23;20254;-84
2023/02/21 14:58:38;;;;;;;;;;;;;;;;;;6157976;23;19904;-83
2023/02/21 15:01:04;;;;;;;;;;;;;;;;;;6165168;23;19913;-83
2023/02/21 15:03:29;;;;;;;;;;;;;;;;;;6193988;23;19932;-85
2023/02/21 15:05:59;;;;;;;;;;;;;;;;;;6150194;23;20289;-84
2023/02/21 15:08:24;;;;;;;;;;;;;;;;;;6170696;23;19908;-85
2023/02/21 15:10:50;;;;;;;;;;;;;;;;;;6189709;23;19909;-85
2023/02/21 15:13:16;;;;;;;;;;;;;;;;;;6161389;23;20324;-85
2023/02/21 15:15:41;;;;;;;;;;;;;;;;;;6184385;23;19915;-86
2023/02/21 15:18:07;;;;;;;;;;;;;;;;;;6135363;23;19932;-85
2023/02/21 15:20:33;;;;;;;;;;;;;;;;;;6158082;23;19967;-85
2023/02/21 15:22:58;;;;;;;;;;;;;;;;;;6158916;23;19912;-85
2023/02/21 15:25:24;;;;;;;;;;;;;;;;;;6156599;23;20286;-84
2023/02/21 15:27:50;;;;;;;;;;;;;;;;;;6187160;23;19909;-86
2023/02/21 15:30:16;;;;;;;;;;;;;;;;;;6162634;23;19958;-85
2023/02/21 15:32:42;;;;;;;;;;;;;;;;;;6161025;23;19909;-86
2023/02/21 15:35:07;;;;;;;;;;;;;;;;;;6161139;23;19909;-85
2023/02/21 15:37:32;;;;;;;;;;;;;;;;;;6157541;23;19909;-85
2023/02/21 15:39:58;;;;;;;;;;;;;;;;;;6157181;23;19987;-85
2023/02/21 15:42:24;;;;;;;;;;;;;;;;;;6156432;23;19936;-85
2023/02/21 15:44:49;;;;;;;;;;;;;;;;;;6157936;23;19909;-85
2023/02/21 15:47:16;;;;;;;;;;;;;;;;;;6180878;23;19979;-85
2023/02/21 15:49:42;;;;;;;;;;;;;;;;;;6180669;23;19909;-85
2023/02/21 15:52:07;;;;;;;;;;;;;;;;;;6181137;23;19976;-84
2023/02/21 15:54:33;;;;;;;;;;;;;;;;;;6157790;23;19912;-84
2023/02/21 15:56:58;;;;;;;;;;;;;;;;;;6155961;23;19912;-85
2023/02/21 15:59:24;;;;;;;;;;;;;;;;;;6157661;23;19913;-84
2023/02/21 16:01:49;;;;;;;;;;;;;;;;;;6156000;23;19908;-85
2023/02/21 16:04:15;;;;;;;;;;;;;;;;;;6179986;23;19909;-83
2023/02/21 16:06:40;;;;;;;;;;;;;;;;;;6154115;23;19989;-85
2023/02/21 16:09:06;;;;;;;;;;;;;;;;;;6154873;23;19909;-84
2023/02/21 16:11:32;;;;;;;;;;;;;;;;;;6179956;23;19909;-85
2023/02/21 16:13:57;;;;;;;;;;;;;;;;;;6131866;23;19912;-84
2023/02/21 16:16:23;;;;;;;;;;;;;;;;;;6183978;23;19913;-86
2023/02/21 16:18:49;;;;;;;;;;;;;;;;;;6158078;23;19908;-85
2023/02/21 16:21:14;;;;;;;;;;;;;;;;;;6134041;23;19916;-85
2023/02/21 16:23:40;;;;;;;;;;;;;;;;;;6157126;23;20014;-85
2023/02/21 16:26:07;;;;;;;;;;;;;;;;;;6159051;23;19915;-84
2023/02/21 16:28:33;;;;;;;;;;;;;;;;;;6181617;23;19967;-84
2023/02/21 16:30:59;;;;;;;;;;;;;;;;;;6158897;23;19909;-84
2023/02/21 16:33:25;;;;;;;;;;;;;;;;;;6133516;23;19909;-85
2023/02/21 16:35:51;;;;;;;;;;;;;;;;;;6157900;23;20040;-84
2023/02/21 16:38:17;;;;;;;;;;;;;;;;;;6157585;23;19979;-85
2023/02/21 16:40:43;;;;;;;;;;;;;;;;;;6155590;23;19979;-86
2023/02/21 16:43:08;;;;;;;;;;;;;;;;;;6156986;23;19905;-84
2023/02/21 16:45:34;;;;;;;;;;;;;;;;;;6154579;23;19960;-85
2023/02/21 16:48:00;;;;;;;;;;;;;;;;;;6156547;23;19948;-84
2023/02/21 16:50:25;;;;;;;;;;;;;;;;;;6155078;23;19977;-85
2023/02/21 16:52:51;;;;;;;;;;;;;;;;;;6156155;23;19968;-86
2023/02/21 16:55:17;;;;;;;;;;;;;;;;;;6153749;23;20350;-84
2023/02/21 16:57:42;;;;;;;;;;;;;;;;;;6134595;23;19916;-84
2023/02/21 17:00:08;;;;;;;;;;;;;;;;;;6155217;23;20338;-85
2023/02/21 17:02:33;;;;;;;;;;;;;;;;;;6180936;23;20254;-85
2023/02/21 17:04:59;;;;;;;;;;;;;;;;;;6179465;23;19935;-85
2023/02/21 17:07:24;;;;;;;;;;;;;;;;;;6179253;23;19916;-86
2023/02/21 17:09:50;;;;;;;;;;;;;;;;;;6179867;23;19979;-86
2023/02/21 17:12:15;;;;;;;;;;;;;;;;;;6154388;23;20417;-86
2023/02/21 17:14:40;;;;;;;;;;;;;;;;;;6180959;23;20286;-86
2023/02/21 17:17:06;;;;;;;;;;;;;;;;;;6154291;23;19909;-85
2023/02/21 17:19:32;;;;;;;;;;;;;;;;;;6153172;23;20353;-85
2023/02/21 17:21:59;;;;;;;;;;;;;;;;;;6133345;23;19912;-85
2023/02/21 17:24:24;;;;;;;;;;;;;;;;;;6182066;23;20361;-85
2023/02/21 17:26:50;;;;;;;;;;;;;;;;;;6156023;23;19909;-84
2023/02/21 17:29:15;;;;;;;;;;;;;;;;;;6155627;23;19916;-85
2023/02/21 17:31:41;;;;;;;;;;;;;;;;;;6182044;23;19980;-83
2023/02/21 17:34:07;;;;;;;;;;;;;;;;;;6155994;23;20268;-83
2023/02/21 17:36:32;;;;;;;;;;;;;;;;;;6132043;23;20133;-86
2023/02/21 17:38:58;;;;;;;;;;;;;;;;;;6160586;23;19920;-95
2023/02/21 17:41:24;;;;;;;;;;;;;;;;;;6135630;23;19905;-93
2023/02/21 17:43:49;;;;;;;;;;;;;;;;;;6160650;23;20289;-91
2023/02/21 17:46:15;;;;;;;;;;;;;;;;;;6162264;23;20342;-92
2023/02/21 17:48:40;;;;;;;;;;;;;;;;;;6135490;23;19905;-92
2023/02/21 17:51:05;;;;;;;;;;;;;;;;;;6111693;23;20051;-92
2023/02/21 17:53:51;;;;;;;;;;;;;;;;;;6120261;23;19975;-91
2023/02/21 17:56:17;;;;;;;;;;;;;;;;;;6184804;23;20286;-91
2023/02/21 17:58:42;;;;;;;;;;;;;;;;;;6185187;23;19912;-90
2023/02/21 18:01:08;;;;;;;;;;;;;;;;;;6184925;23;19923;-91
2023/02/21 18:03:33;;;;;;;;;;;;;;;;;;6184858;23;20273;-90
2023/02/21 18:05:59;;;;;;;;;;;;;;;;;;6135240;23;19909;-91
2023/02/21 18:08:24;;;;;;;;;;;;;;;;;;6184569;23;19912;-93
2023/02/21 18:10:49;;;;;;;;;;;;;;;;;;6159147;23;19908;-90
2023/02/21 18:13:15;;;;;;;;;;;;;;;;;;6159101;23;19914;-90
2023/02/21 18:15:40;;;;;;;;;;;;;;;;;;6133076;23;20273;-92
2023/02/21 18:18:06;;;;;;;;;;;;;;;;;;6157959;23;20246;-91
2023/02/21 18:20:31;;;;;;;;;;;;;;;;;;6184178;23;20338;-90
2023/02/21 18:22:57;;;;;;;;;;;;;;;;;;6183928;23;19939;-90
2023/02/21 18:25:23;;;;;;;;;;;;;;;;;;6157764;23;19908;-88
2023/02/21 18:27:48;;;;;;;;;;;;;;;;;;6131490;23;19908;-90
2023/02/21 18:30:14;;;;;;;;;;;;;;;;;;6184154;23;20376;-91
2023/02/21 18:32:40;;;;;;;;;;;;;;;;;;6157168;23;19939;-91
2023/02/21 18:35:05;;;;;;;;;;;;;;;;;;6181707;23;19908;-90
2023/02/21 18:37:31;;;;;;;;;;;;;;;;;;6183639;23;19915;-91
2023/02/21 18:39:56;;;;;;;;;;;;;;;;;;6157591;23;19932;-90
2023/02/21 18:42:22;;;;;;;;;;;;;;;;;;6110100;23;19912;-90
2023/02/21 18:44:48;;;;;;;;;;;;;;;;;;6165811;23;19908;-88
2023/02/21 18:47:15;;;;;;;;;;;;;;;;;;6175538;23;19908;-86
2023/02/21 18:49:42;;;;;;;;;;;;;;;;;;6126192;23;20353;-91
2023/02/21 18:52:08;;;;;;;;;;;;;;;;;;6174839;23;19919;-88
2023/02/21 18:54:34;;;;;;;;;;;;;;;;;;6149696;23;19932;-87